map of YNB home
YNB - Airport
Location
City:  Yanbu, Saudi Arabia
Near (Alt.):Yanbu al-Bahr, Yenbo
Name:Prince Abdul Mohsin bin Abdulaziz Airport
ICAO:OEYN
IATA:YNB

Details
Type:Airport (Aerodrome, Airfield)
Use:Public/Civil, International (customs port of entry)
Latitude:2408'39"N (24.144167)
Longitude:3803'49"E (38.063611)
Elevation:26 ft (8 m)
Variation:3.82E (WMM2015 magnetic declination)
0.07 annual change
Runways:1
Longest:10538 × 148 ft (3212 × 45 m), paved

Time
Time Zone:UTC+3
Local Time:

Weather
METAR:OEYN 150000Z 09003KT CAVOK 20/18 Q1012 NOSIG

Related Locations
Nearby:
Farthest:UOA: 12184 mi / 19609 km
Mururoa Atoll [Mururoa Airstrip], PF

Find:

   beyond  
but within

Other Information
Maps:
NOTAMs:
Links:
Sources:

  
flag of Saudi Arabia   

Sectional Chart

Flight Planning
at skyvector.com

Satellite Image

Google Maps Satellite view

 

Copyright © 2004-2017 Karl L. Swartz. All rights reserved.
The Great Circle Mapper name and logo are trademarks of the Great Circle Mapper.
All other trademarks mentioned herein belong to their respective owners.
Please see credits for attibutions and further copyright information.

  Follow gcmap on Facebook Follow gcmap on Twitter Follow gcmap on Google+ GCmap on LinkedIn

hCard Microformat

Geo Microformat